Time;durP1;ratioP1;P1;durP2;ratioP2;P2;SDS_P1;SDS_P2;PMS_P1;PMS_P2;Temp;Humidity;BMP_temperature;BMP_pressure;BME280_temperature;BME280_humidity;BME280_pressure;Samples;Min_cycle;Max_cycle;Signal;HPM_P1;HPM_P2
2020/12/16 00:00:48;;;;;;;60.20;30.65;;;3.90;99.90;;;;;;5087263;28;20751;-88
2020/12/16 00:03:23;;;;;;;50.70;27.80;;;3.90;99.90;;;;;;5085877;28;20188;-88
2020/12/16 00:06:04;;;;;;;52.90;25.98;;;3.90;99.90;;;;;;5085865;28;20770;-88
2020/12/16 00:08:35;;;;;;;54.47;28.23;;;3.80;99.90;;;;;;5085369;28;20305;-88
2020/12/16 00:11:01;;;;;;;56.70;28.48;;;3.90;99.90;;;;;;5085696;28;20223;-87
2020/12/16 00:13:36;;;;;;;55.37;27.50;;;3.80;99.90;;;;;;5084724;28;20711;-87
2020/12/16 00:16:07;;;;;;;51.65;28.55;;;3.80;99.90;;;;;;5087084;28;20393;-88
2020/12/16 00:18:33;;;;;;;56.45;28.02;;;3.80;99.90;;;;;;5085327;28;20180;-88
2020/12/16 00:20:59;;;;;;;63.10;33.63;;;3.80;99.90;;;;;;5085782;28;20277;-87
2020/12/16 00:23:30;;;;;;;62.43;32.50;;;3.80;99.90;;;;;;5085429;28;20180;-88
2020/12/16 00:25:59;;;;;;;64.40;34.08;;;3.80;99.90;;;;;;5087470;28;20238;-88
2020/12/16 00:28:24;;;;;;;63.88;32.40;;;3.80;99.90;;;;;;5085025;28;20594;-88
2020/12/16 00:30:50;;;;;;;57.70;31.23;;;3.80;99.90;;;;;;5084797;28;20222;-88
2020/12/16 00:33:17;;;;;;;59.10;32.30;;;3.80;99.90;;;;;;5089309;28;20183;-88
2020/12/16 00:35:46;;;;;;;51.67;30.65;;;3.80;99.90;;;;;;5090892;28;20184;-88
2020/12/16 00:38:12;;;;;;;61.13;32.92;;;3.80;99.90;;;;;;5090107;28;20192;-88
2020/12/16 00:40:42;;;;;;;62.63;33.50;;;3.80;99.90;;;;;;5089978;28;20717;-88
2020/12/16 00:43:08;;;;;;;52.45;25.00;;;3.80;99.90;;;;;;5090716;28;20663;-87
2020/12/16 00:45:36;;;;;;;66.40;34.60;;;3.80;99.90;;;;;;5088919;28;20252;-88
2020/12/16 00:48:07;;;;;;;67.65;33.95;;;3.80;99.90;;;;;;5090572;28;20233;-88
2020/12/16 00:50:36;;;;;;;70.03;37.20;;;3.80;99.90;;;;;;5089579;28;20267;-88
2020/12/16 00:53:30;;;;;;;62.42;34.33;;;3.80;99.90;;;;;;5089144;28;20195;-87
2020/12/16 00:55:55;;;;;;;72.57;36.10;;;3.80;99.90;;;;;;5088997;28;20172;-90
2020/12/16 00:58:21;;;;;;;70.40;35.00;;;3.80;99.90;;;;;;5088824;28;20723;-88
2020/12/16 01:00:46;;;;;;;55.20;31.20;;;3.80;99.90;;;;;;5088889;28;20273;-89
2020/12/16 01:03:12;;;;;;;61.13;30.80;;;3.80;99.90;;;;;;5088535;28;20184;-89
2020/12/16 01:05:40;;;;;;;67.60;33.70;;;3.80;99.90;;;;;;5089238;28;20218;-88
2020/12/16 01:08:21;;;;;;;66.50;33.50;;;3.80;99.90;;;;;;5088431;28;20177;-87
2020/12/16 01:10:49;;;;;;;63.83;35.00;;;3.90;99.90;;;;;;5088624;28;20180;-87
2020/12/16 01:13:15;;;;;;;70.63;35.13;;;3.90;99.90;;;;;;5089258;28;20187;-88
2020/12/16 01:15:44;;;;;;;69.82;35.15;;;3.90;99.90;;;;;;5088854;28;20188;-88
2020/12/16 01:18:12;;;;;;;62.28;34.70;;;3.90;99.90;;;;;;5087756;28;20961;-88
2020/12/16 01:20:44;;;;;;;71.22;33.58;;;3.90;99.90;;;;;;5088336;28;20208;-88
2020/12/16 01:23:10;;;;;;;54.60;33.03;;;3.90;99.90;;;;;;5088645;28;20184;-87
2020/12/16 01:25:38;;;;;;;61.17;33.00;;;3.90;99.90;;;;;;5089056;28;20520;-89
2020/12/16 01:28:09;;;;;;;56.60;30.77;;;3.90;99.90;;;;;;5089917;28;20256;-88
2020/12/16 01:30:35;;;;;;;73.82;36.30;;;3.90;99.90;;;;;;5088063;28;20181;-88
2020/12/16 01:33:01;;;;;;;69.47;32.37;;;3.90;99.90;;;;;;5088604;28;20230;-87
2020/12/16 01:35:29;;;;;;;71.97;35.87;;;3.90;99.90;;;;;;5087690;28;20183;-88
2020/12/16 01:37:55;;;;;;;62.88;33.63;;;3.90;99.90;;;;;;5089963;28;20180;-88
2020/12/16 01:40:22;;;;;;;66.63;34.80;;;3.90;99.90;;;;;;5088095;28;20254;-88
2020/12/16 01:42:47;;;;;;;66.47;35.33;;;4.00;99.90;;;;;;5087273;28;20541;-88
2020/12/16 01:45:21;;;;;;;79.33;36.50;;;4.00;99.90;;;;;;5088294;28;20200;-88
2020/12/16 01:47:47;;;;;;;72.00;35.75;;;3.90;99.90;;;;;;5088270;28;20267;-88
2020/12/16 01:50:13;;;;;;;67.38;36.65;;;3.90;99.90;;;;;;5089320;28;20621;-87
2020/12/16 01:52:42;;;;;;;71.70;37.53;;;3.90;99.90;;;;;;5086938;28;20230;-88
2020/12/16 01:55:11;;;;;;;73.85;36.83;;;4.00;99.90;;;;;;5089435;28;20900;-88
2020/12/16 01:57:39;;;;;;;76.50;39.67;;;4.00;99.90;;;;;;5089410;28;20187;-87
2020/12/16 02:00:10;;;;;;;64.43;36.67;;;4.00;99.90;;;;;;5088171;28;20200;-88
2020/12/16 02:02:49;;;;;;;71.82;36.58;;;4.00;99.90;;;;;;5089416;28;20505;-88
2020/12/16 02:05:39;;;;;;;69.85;36.75;;;4.00;99.90;;;;;;5088269;28;20312;-87
2020/12/16 02:08:08;;;;;;;50.65;28.17;;;4.00;99.90;;;;;;5086575;28;20278;-88
2020/12/16 02:10:34;;;;;;;74.55;34.60;;;3.90;99.90;;;;;;5089399;28;20250;-87
2020/12/16 02:13:02;;;;;;;66.65;34.83;;;3.90;99.90;;;;;;5087998;28;20184;-88
2020/12/16 02:15:28;;;;;;;76.10;35.10;;;3.90;99.90;;;;;;5087839;28;20656;-88
2020/12/16 02:17:54;;;;;;;64.10;35.50;;;3.90;99.90;;;;;;5087788;28;20283;-88
2020/12/16 02:20:26;;;;;;;61.13;34.97;;;3.90;99.90;;;;;;5087181;28;20774;-89
2020/12/16 02:22:55;;;;;;;71.13;35.80;;;3.90;99.90;;;;;;5086988;28;20180;-88
2020/12/16 02:25:21;;;;;;;70.47;35.72;;;4.00;99.90;;;;;;5087503;28;20639;-88
2020/12/16 02:27:47;;;;;;;71.33;35.57;;;4.00;99.90;;;;;;5087372;28;20276;-88
2020/12/16 02:30:15;;;;;;;66.20;34.77;;;4.00;99.90;;;;;;5088818;28;20192;-88
2020/12/16 02:32:41;;;;;;;65.03;35.05;;;4.00;99.90;;;;;;5088894;28;20191;-88
2020/12/16 02:35:08;;;;;;;71.33;36.07;;;4.00;99.90;;;;;;5088705;28;20184;-88
2020/12/16 02:37:53;;;;;;;69.18;37.20;;;4.10;99.90;;;;;;5087611;28;20282;-88
2020/12/16 02:40:18;;;;;;;67.72;36.42;;;4.00;99.90;;;;;;5087065;28;20631;-87
2020/12/16 02:42:50;;;;;;;66.33;33.67;;;4.00;99.90;;;;;;5086920;28;20269;-88
2020/12/16 02:45:18;;;;;;;60.67;34.28;;;4.00;99.90;;;;;;5087211;28;20169;-88
2020/12/16 02:47:47;;;;;;;67.28;37.92;;;3.90;99.90;;;;;;5087436;28;20217;-88
2020/12/16 02:50:18;;;;;;;67.50;36.85;;;3.90;99.90;;;;;;5087157;28;20596;-87
2020/12/16 02:52:44;;;;;;;67.70;36.30;;;3.90;99.90;;;;;;5087019;28;20198;-88
2020/12/16 02:55:10;;;;;;;68.97;36.40;;;3.90;99.90;;;;;;5086611;28;20192;-88
2020/12/16 02:57:41;;;;;;;74.30;37.10;;;3.90;99.90;;;;;;5087137;28;20678;-87
2020/12/16 03:00:13;;;;;;;75.13;38.97;;;3.90;99.90;;;;;;5087440;28;20204;-87
2020/12/16 03:02:38;;;;;;;71.22;38.28;;;3.90;99.90;;;;;;5087051;28;20177;-88
2020/12/16 03:05:13;;;;;;;80.37;38.80;;;4.00;99.90;;;;;;5088680;28;20543;-88
2020/12/16 03:07:39;;;;;;;71.43;36.97;;;3.90;99.90;;;;;;5087227;28;20221;-88
2020/12/16 03:10:04;;;;;;;70.10;37.00;;;3.90;99.90;;;;;;5086602;28;20215;-88
2020/12/16 03:12:36;;;;;;;78.03;39.10;;;3.90;99.90;;;;;;5085873;28;20177;-88
2020/12/16 03:15:01;;;;;;;80.85;39.80;;;3.90;99.90;;;;;;5088296;28;20165;-88
2020/12/16 03:17:33;;;;;;;70.70;34.13;;;3.90;99.90;;;;;;5088371;28;20246;-89
2020/12/16 03:19:59;;;;;;;81.40;40.83;;;3.90;99.90;;;;;;5086833;28;20246;-87
2020/12/16 03:22:33;;;;;;;83.30;43.93;;;3.80;99.90;;;;;;5086491;28;20581;-88
2020/12/16 03:25:04;;;;;;;80.13;38.72;;;3.90;99.90;;;;;;5087014;28;20722;-88
2020/12/16 03:27:39;;;;;;;82.82;41.13;;;3.90;99.90;;;;;;5087661;28;20165;-89
2020/12/16 03:30:10;;;;;;;98.07;43.45;;;3.80;99.90;;;;;;5086530;28;20553;-88
2020/12/16 03:33:00;;;;;;;88.15;43.63;;;3.80;99.90;;;;;;5086020;28;20180;-89
2020/12/16 03:38:31;;;;;;;90.47;40.65;;;3.70;99.90;;;;;;5088578;28;20194;-89
2020/12/16 03:40:57;;;;;;;97.10;44.00;;;3.70;99.90;;;;;;5086557;28;20222;-89
2020/12/16 03:43:49;;;;;;;93.25;43.92;;;3.70;99.90;;;;;;5086778;28;20173;-87
2020/12/16 03:46:21;;;;;;;102.70;44.83;;;3.70;99.90;;;;;;5085371;28;20180;-88
2020/12/16 03:48:46;;;;;;;103.70;45.75;;;3.70;99.90;;;;;;5086621;28;20259;-88
2020/12/16 03:51:20;;;;;;;97.00;47.03;;;3.80;99.90;;;;;;5085887;28;20290;-88
2020/12/16 03:54:00;;;;;;;94.35;45.67;;;3.80;99.90;;;;;;5086742;28;20176;-88
2020/12/16 03:56:32;;;;;;;88.03;42.25;;;3.80;99.90;;;;;;5086165;28;20192;-86
2020/12/16 03:58:57;;;;;;;88.70;40.05;;;3.80;99.90;;;;;;5085964;28;20224;-87
2020/12/16 04:01:32;;;;;;;84.13;40.13;;;3.70;99.90;;;;;;5085415;28;20701;-87
2020/12/16 04:03:57;;;;;;;86.80;40.35;;;3.70;99.90;;;;;;5085872;28;20175;-87
2020/12/16 04:06:23;;;;;;;88.00;43.23;;;3.80;99.90;;;;;;5085468;28;20523;-88
2020/12/16 04:08:54;;;;;;;92.83;42.50;;;3.70;99.90;;;;;;5086812;28;20176;-88
2020/12/16 04:11:23;;;;;;;92.32;40.67;;;3.80;99.90;;;;;;5082868;28;20222;-88
2020/12/16 04:13:51;;;;;;;86.20;42.45;;;3.80;99.90;;;;;;5085436;28;20214;-88
2020/12/16 04:16:51;;;;;;;91.47;41.30;;;3.80;99.90;;;;;;5085374;28;20645;-87
2020/12/16 04:19:23;;;;;;;80.93;34.53;;;3.80;99.90;;;;;;5086075;28;20227;-87
2020/12/16 04:21:53;;;;;;;79.00;37.15;;;3.80;99.90;;;;;;5085935;28;20705;-87
2020/12/16 04:24:18;;;;;;;81.70;39.22;;;3.80;99.90;;;;;;5086375;28;20180;-88
2020/12/16 04:26:44;;;;;;;73.93;35.57;;;3.80;99.90;;;;;;5085563;28;20229;-87
2020/12/16 04:29:12;;;;;;;73.20;37.50;;;3.80;99.90;;;;;;5087725;28;20173;-88
2020/12/16 04:31:41;;;;;;;80.03;38.97;;;3.90;99.90;;;;;;5087248;28;20262;-87
2020/12/16 04:34:13;;;;;;;91.53;40.95;;;3.80;99.90;;;;;;5084880;28;20180;-87
2020/12/16 04:36:51;;;;;;;86.72;41.20;;;3.80;99.90;;;;;;5085275;28;20223;-87
2020/12/16 04:39:18;;;;;;;76.88;38.83;;;3.80;99.90;;;;;;5087202;28;20196;-88
2020/12/16 04:41:51;;;;;;;67.78;36.30;;;3.80;99.90;;;;;;5085924;28;20218;-88
2020/12/16 04:44:17;;;;;;;73.10;37.40;;;3.80;99.90;;;;;;5087519;28;20188;-88
2020/12/16 04:46:43;;;;;;;84.70;39.57;;;3.80;99.90;;;;;;5085143;28;20722;-88
2020/12/16 04:49:10;;;;;;;73.37;38.03;;;3.90;99.90;;;;;;5085809;28;20402;-88
2020/12/16 04:51:41;;;;;;;84.63;39.58;;;3.90;99.90;;;;;;5086126;28;20185;-87
2020/12/16 04:54:06;;;;;;;88.10;42.17;;;3.90;99.90;;;;;;5086150;28;20211;-88
2020/12/16 04:56:42;;;;;;;78.90;39.90;;;3.80;99.90;;;;;;5087373;28;20176;-88
2020/12/16 04:59:11;;;;;;;88.50;40.47;;;3.80;99.90;;;;;;5085271;28;20319;-88
2020/12/16 05:01:47;;;;;;;81.70;38.25;;;3.90;99.90;;;;;;5085469;28;20569;-87
2020/12/16 05:04:18;;;;;;;81.03;40.55;;;3.90;99.90;;;;;;5085607;28;20547;-87
2020/12/16 05:06:47;;;;;;;85.75;40.42;;;3.90;99.90;;;;;;5084098;28;20184;-88
2020/12/16 05:09:15;;;;;;;76.95;38.63;;;3.80;99.90;;;;;;5087650;28;20184;-88
2020/12/16 05:11:52;;;;;;;79.00;42.03;;;3.90;99.90;;;;;;5085100;28;20184;-87
2020/12/16 05:14:35;;;;;;;90.07;41.88;;;3.90;99.90;;;;;;5085117;28;20191;-88
2020/12/16 05:17:06;;;;;;;87.82;42.55;;;3.90;99.90;;;;;;5085193;28;20184;-87
2020/12/16 05:19:31;;;;;;;116.13;52.03;;;3.90;99.90;;;;;;5089315;28;20554;-88
2020/12/16 05:22:15;;;;;;;120.67;53.20;;;3.90;99.90;;;;;;5088369;28;20177;-87
2020/12/16 05:24:47;;;;;;;96.00;43.17;;;3.90;99.90;;;;;;5088944;28;20577;-88
2020/12/16 05:27:22;;;;;;;113.82;50.58;;;3.90;99.90;;;;;;5088954;28;20200;-88
2020/12/16 05:30:01;;;;;;;98.57;47.70;;;3.80;99.90;;;;;;5089244;28;20578;-89
2020/12/16 05:32:35;;;;;;;104.32;45.58;;;3.80;99.90;;;;;;5090279;28;20185;-87
2020/12/16 05:35:27;;;;;;;106.50;45.53;;;3.80;99.90;;;;;;5088742;28;20192;-87
2020/12/16 05:38:04;;;;;;;99.97;40.42;;;3.80;99.90;;;;;;5087923;28;20257;-87
2020/12/16 05:40:35;;;;;;;91.60;37.75;;;3.80;99.90;;;;;;5089848;28;20188;-87
2020/12/16 05:43:05;;;;;;;93.07;42.83;;;3.80;99.90;;;;;;5090176;28;20181;-88
2020/12/16 05:45:41;;;;;;;90.10;43.55;;;3.80;99.90;;;;;;5088541;28;20187;-87
2020/12/16 05:48:14;;;;;;;95.60;37.95;;;3.80;99.90;;;;;;5088707;28;20271;-87
2020/12/16 05:50:53;;;;;;;91.05;42.47;;;3.80;99.90;;;;;;5089533;28;20180;-87
2020/12/16 05:53:23;;;;;;;97.90;42.03;;;3.80;99.90;;;;;;5088910;28;20176;-87
2020/12/16 05:56:01;;;;;;;89.35;40.20;;;3.80;99.90;;;;;;5087379;28;20212;-88
2020/12/16 05:58:36;;;;;;;69.13;31.27;;;3.80;99.90;;;;;;5088106;28;20231;-87
2020/12/16 06:01:06;;;;;;;84.85;34.95;;;3.70;99.90;;;;;;5087762;28;20208;-87
2020/12/16 06:03:39;;;;;;;94.32;42.20;;;3.70;99.90;;;;;;5088049;28;20227;-87
2020/12/16 06:06:09;;;;;;;103.95;46.88;;;3.70;99.90;;;;;;5088509;28;20238;-87
2020/12/16 06:08:35;;;;;;;106.72;44.30;;;3.70;99.90;;;;;;5088016;28;20184;-86
2020/12/16 06:11:05;;;;;;;106.80;46.67;;;3.70;99.90;;;;;;5088096;28;20180;-87
2020/12/16 06:13:31;;;;;;;110.30;45.38;;;3.70;99.90;;;;;;5086776;28;20590;-87
2020/12/16 06:16:01;;;;;;;96.00;42.70;;;3.70;99.90;;;;;;5087118;28;20185;-87
2020/12/16 06:18:44;;;;;;;100.00;41.95;;;3.70;99.90;;;;;;5087860;28;20498;-87
2020/12/16 06:21:12;;;;;;;113.95;48.25;;;3.70;99.90;;;;;;5089056;28;20200;-87
2020/12/16 06:23:45;;;;;;;110.25;48.33;;;3.70;99.90;;;;;;5087606;28;20542;-87
2020/12/16 06:26:19;;;;;;;116.97;51.13;;;3.70;99.90;;;;;;5089167;28;20172;-87
2020/12/16 06:28:45;;;;;;;115.88;48.50;;;3.70;99.90;;;;;;5087886;28;20199;-88
2020/12/16 06:31:20;;;;;;;99.50;42.42;;;3.70;99.90;;;;;;5087691;28;20569;-88
2020/12/16 06:34:04;;;;;;;96.55;42.47;;;3.70;99.90;;;;;;5087648;28;20179;-87
2020/12/16 06:36:32;;;;;;;103.47;42.65;;;3.70;99.90;;;;;;5086952;28;20644;-88
2020/12/16 06:38:59;;;;;;;96.90;40.65;;;3.70;99.90;;;;;;5088000;28;20273;-87
2020/12/16 06:41:29;;;;;;;88.25;40.03;;;3.70;99.90;;;;;;5087469;28;20181;-88
2020/12/16 06:44:14;;;;;;;94.95;45.38;;;3.70;99.90;;;;;;5097860;28;20517;-87
2020/12/16 06:46:45;;;;;;;93.00;43.45;;;3.70;99.90;;;;;;5087070;28;20184;-88
2020/12/16 06:49:23;;;;;;;97.55;42.35;;;3.70;99.90;;;;;;5087488;28;21018;-88
2020/12/16 06:51:51;;;;;;;93.57;39.90;;;3.70;99.90;;;;;;5087317;28;20180;-87
2020/12/16 06:54:21;;;;;;;83.88;37.35;;;3.70;99.90;;;;;;5084534;28;20215;-87
2020/12/16 06:56:49;;;;;;;85.30;37.58;;;3.70;99.90;;;;;;5085277;28;20601;-87
2020/12/16 06:59:35;;;;;;;91.47;38.85;;;3.70;99.90;;;;;;5086198;28;20277;-88
2020/12/16 07:02:13;;;;;;;99.03;43.88;;;3.70;99.90;;;;;;5081186;28;20310;-87
2020/12/16 07:04:45;;;;;;;91.00;42.75;;;3.80;99.90;;;;;;5086010;28;20187;-88
2020/12/16 07:08:11;;;;;;;85.85;36.90;;;3.80;99.90;;;;;;5087057;28;20646;-87
2020/12/16 07:10:47;;;;;;;77.72;37.45;;;3.80;99.90;;;;;;5035907;28;20217;-87
2020/12/16 07:13:16;;;;;;;86.07;35.13;;;3.80;99.90;;;;;;5044709;28;20189;-87
2020/12/16 07:15:53;;;;;;;90.70;43.85;;;3.70;99.90;;;;;;5093272;27;20554;-87
2020/12/16 07:18:45;;;;;;;81.55;36.53;;;3.80;99.90;;;;;;5085760;28;20762;-87
2020/12/16 07:21:11;;;;;;;93.95;43.25;;;3.80;99.90;;;;;;5073549;28;20223;-87
2020/12/16 07:24:00;;;;;;;73.57;34.50;;;3.80;99.90;;;;;;5086547;28;20185;-87
2020/12/16 07:26:35;;;;;;;83.45;38.95;;;3.80;99.90;;;;;;5065720;28;20169;-87
2020/12/16 07:29:30;;;;;;;84.25;37.47;;;3.80;99.90;;;;;;5101632;28;20188;-87
2020/12/16 07:32:15;;;;;;;84.07;40.65;;;3.80;99.90;;;;;;5086370;28;20236;-87
2020/12/16 07:35:03;;;;;;;78.43;35.50;;;3.90;99.90;;;;;;5085622;28;20184;-87
2020/12/16 07:37:30;;;;;;;75.15;34.35;;;3.80;99.90;;;;;;5086217;28;20738;-87
2020/12/16 07:40:05;;;;;;;81.40;37.78;;;3.80;99.90;;;;;;5085098;28;20200;-87
2020/12/16 07:42:36;;;;;;;83.10;39.25;;;3.90;99.90;;;;;;5084742;28;20703;-87
2020/12/16 07:45:05;;;;;;;81.13;36.70;;;3.90;99.90;;;;;;5085874;28;20207;-87
2020/12/16 07:47:37;;;;;;;94.10;40.28;;;3.90;99.90;;;;;;5085766;28;20222;-88
2020/12/16 07:50:09;;;;;;;73.65;35.38;;;3.80;99.90;;;;;;5084003;28;20184;-88
2020/12/16 07:52:37;;;;;;;134.23;72.97;;;3.80;99.90;;;;;;5085362;28;20187;-88
2020/12/16 07:55:09;;;;;;;74.85;38.72;;;3.90;99.90;;;;;;5084172;28;20199;-87
2020/12/16 07:57:37;;;;;;;70.80;36.13;;;3.90;99.90;;;;;;5083858;28;20279;-87
2020/12/16 08:00:04;;;;;;;80.68;38.03;;;3.90;99.90;;;;;;5083695;28;20226;-87
2020/12/16 08:02:34;;;;;;;80.00;40.03;;;3.90;99.90;;;;;;5084733;28;20200;-87
2020/12/16 08:05:09;;;;;;;69.53;34.65;;;3.90;99.90;;;;;;5082279;28;20758;-87
2020/12/16 08:07:35;;;;;;;87.10;38.33;;;3.90;99.90;;;;;;5084611;28;20180;-87
2020/12/16 08:10:06;;;;;;;82.57;39.30;;;3.90;99.90;;;;;;5084928;28;20200;-87
2020/12/16 08:12:41;;;;;;;80.43;35.13;;;3.80;99.90;;;;;;5085209;28;20203;-87
2020/12/16 08:15:17;;;;;;;86.20;39.83;;;3.80;99.90;;;;;;5085209;28;20270;-88
2020/12/16 08:17:55;;;;;;;75.65;33.10;;;3.80;99.90;;;;;;5086564;28;20656;-87
2020/12/16 08:20:22;;;;;;;100.90;39.70;;;3.80;99.90;;;;;;5086028;28;20208;-87
2020/12/16 08:23:04;;;;;;;90.18;37.45;;;3.80;99.90;;;;;;5085701;28;20211;-87
2020/12/16 08:25:30;;;;;;;87.50;39.50;;;3.80;99.90;;;;;;5085393;28;20179;-87
2020/12/16 08:27:57;;;;;;;82.83;40.03;;;3.80;99.90;;;;;;5085505;28;20648;-87
2020/12/16 08:30:27;;;;;;;86.95;41.90;;;3.80;99.90;;;;;;5083709;28;20234;-87
2020/12/16 08:32:56;;;;;;;161.63;70.53;;;3.90;99.90;;;;;;5107780;27;20610;-88
2020/12/16 08:35:30;;;;;;;73.18;33.92;;;3.90;99.90;;;;;;5074967;28;20185;-88
2020/12/16 08:38:02;;;;;;;73.25;36.45;;;3.80;99.90;;;;;;5074909;28;20191;-88
2020/12/16 08:40:28;;;;;;;90.88;39.03;;;3.80;99.90;;;;;;5086544;28;20204;-87
2020/12/16 08:42:54;;;;;;;90.32;39.90;;;3.70;99.90;;;;;;5084873;28;20197;-87
2020/12/16 08:45:21;;;;;;;80.40;35.50;;;3.90;99.90;;;;;;5084970;28;20684;-87
2020/12/16 08:47:47;;;;;;;83.57;35.20;;;3.90;99.90;;;;;;5086830;28;20399;-87
2020/12/16 08:50:20;;;;;;;83.53;37.60;;;3.80;99.90;;;;;;5084882;28;20691;-87
2020/12/16 08:52:54;;;;;;;75.18;37.40;;;3.90;99.90;;;;;;5095915;28;20523;-87
2020/12/16 08:55:20;;;;;;;79.10;34.38;;;4.00;99.90;;;;;;5078693;28;20203;-87
2020/12/16 08:57:59;;;;;;;72.90;34.72;;;3.90;99.90;;;;;;5087747;28;20188;-87
2020/12/16 09:00:27;;;;;;;80.80;38.50;;;3.90;99.90;;;;;;5088699;28;20208;-87
2020/12/16 09:03:11;;;;;;;85.95;38.55;;;3.90;99.90;;;;;;5086606;28;20211;-87
2020/12/16 09:05:39;;;;;;;76.18;35.72;;;3.90;99.90;;;;;;5095199;28;20203;-86
2020/12/16 09:08:17;;;;;;;88.10;42.20;;;3.90;99.90;;;;;;5083717;28;20258;-87
2020/12/16 09:10:49;;;;;;;81.82;35.00;;;3.90;99.90;;;;;;5098205;28;20183;-87
2020/12/16 09:13:20;;;;;;;90.40;37.67;;;4.00;99.90;;;;;;5097650;28;20196;-88
2020/12/16 09:15:53;;;;;;;86.68;38.55;;;4.00;99.90;;;;;;5083810;28;20177;-87
2020/12/16 09:18:27;;;;;;;95.72;42.05;;;3.90;99.90;;;;;;5082352;28;20192;-87
2020/12/16 09:20:52;;;;;;;86.53;36.05;;;3.90;99.90;;;;;;5084569;28;20557;-87
2020/12/16 09:23:28;;;;;;;96.33;41.07;;;3.90;99.90;;;;;;5098155;28;20196;-87
2020/12/16 09:25:57;;;;;;;91.57;41.53;;;3.80;99.90;;;;;;5082850;28;20181;-86
2020/12/16 09:28:39;;;;;;;91.82;41.25;;;3.90;99.90;;;;;;5081411;28;20657;-87
2020/12/16 09:31:19;;;;;;;79.95;38.17;;;3.90;99.90;;;;;;5094232;28;20177;-87
2020/12/16 09:33:59;;;;;;;84.35;37.10;;;3.80;99.90;;;;;;5085772;28;20724;-87
2020/12/16 09:36:26;;;;;;;94.75;41.22;;;3.80;99.90;;;;;;5078498;28;20194;-87
2020/12/16 09:39:04;;;;;;;119.57;57.50;;;3.90;99.90;;;;;;5085073;28;20207;-87
2020/12/16 09:41:48;;;;;;;92.72;37.53;;;3.80;99.90;;;;;;5094032;28;20216;-87
2020/12/16 09:44:43;;;;;;;78.25;40.08;;;3.90;99.90;;;;;;5091734;28;20229;-87
2020/12/16 09:47:30;;;;;;;78.97;34.83;;;3.90;99.90;;;;;;5070742;28;20636;-87
2020/12/16 09:49:59;;;;;;;79.00;34.63;;;3.80;99.90;;;;;;5092734;28;20188;-87
2020/12/16 09:52:25;;;;;;;91.28;43.90;;;3.80;99.90;;;;;;5091751;28;20184;-87
2020/12/16 09:54:54;;;;;;;83.53;39.92;;;3.80;99.90;;;;;;5094227;28;20204;-87
2020/12/16 09:57:33;;;;;;;79.47;36.85;;;3.80;99.90;;;;;;5092459;28;20191;-87
2020/12/16 10:00:14;;;;;;;88.60;37.92;;;3.80;99.90;;;;;;5095770;28;20223;-87
2020/12/16 10:02:39;;;;;;;79.07;36.08;;;3.80;99.90;;;;;;5079338;28;20185;-87
2020/12/16 10:05:05;;;;;;;74.13;33.50;;;3.80;99.90;;;;;;5090843;28;20699;-87
2020/12/16 10:07:34;;;;;;;93.87;41.40;;;3.80;99.90;;;;;;5091427;28;20180;-87
2020/12/16 10:10:00;;;;;;;83.07;39.13;;;3.80;99.90;;;;;;5090615;28;20188;-87
2020/12/16 10:12:26;;;;;;;99.00;44.23;;;3.70;99.90;;;;;;5086378;28;20199;-87
2020/12/16 10:14:55;;;;;;;99.23;41.27;;;3.80;99.90;;;;;;5090489;28;20479;-86
2020/12/16 10:17:27;;;;;;;93.53;38.42;;;3.90;99.90;;;;;;5087144;28;20201;-87
2020/12/16 10:19:53;;;;;;;85.43;37.28;;;3.90;99.90;;;;;;5091314;28;20680;-87
2020/12/16 10:22:19;;;;;;;104.63;50.63;;;3.90;99.90;;;;;;5090838;28;20206;-87
2020/12/16 10:24:45;;;;;;;126.82;63.15;;;3.80;99.90;;;;;;5092829;28;20501;-87
2020/12/16 10:27:11;;;;;;;122.10;63.57;;;3.80;99.90;;;;;;5092159;28;20260;-87
2020/12/16 10:29:55;;;;;;;101.37;46.90;;;3.90;99.90;;;;;;5088681;28;20419;-87
2020/12/16 10:32:25;;;;;;;121.80;67.07;;;3.90;99.90;;;;;;5083397;28;20884;-87
2020/12/16 10:34:57;;;;;;;110.50;58.35;;;3.90;99.90;;;;;;5083388;28;20584;-87
2020/12/16 10:37:23;;;;;;;88.38;43.28;;;3.90;99.90;;;;;;5083806;28;20244;-87
2020/12/16 10:39:52;;;;;;;86.80;40.28;;;3.90;99.90;;;;;;5083776;28;20211;-87
2020/12/16 10:42:21;;;;;;;103.30;50.42;;;3.90;99.90;;;;;;5084747;28;20187;-87
2020/12/16 10:44:50;;;;;;;84.70;40.50;;;4.00;99.90;;;;;;5084838;28;20184;-87
2020/12/16 10:47:17;;;;;;;92.97;40.33;;;4.00;99.90;;;;;;5084954;28;20687;-88
2020/12/16 10:49:42;;;;;;;95.13;43.97;;;4.00;99.90;;;;;;5085754;28;20560;-87
2020/12/16 10:52:14;;;;;;;81.60;37.57;;;3.90;99.90;;;;;;5084069;28;20184;-87
2020/12/16 10:54:45;;;;;;;85.15;37.78;;;3.90;99.90;;;;;;5082637;28;20761;-87
2020/12/16 10:57:11;;;;;;;82.65;39.85;;;3.90;99.90;;;;;;5083552;28;20566;-87
2020/12/16 11:02:43;;;;;;;87.32;38.42;;;4.10;99.90;;;;;;5084877;28;20199;-88
2020/12/16 11:05:11;;;;;;;125.00;54.63;;;4.00;99.90;;;;;;5086511;28;20169;-87
2020/12/16 11:07:37;;;;;;;121.72;51.50;;;4.00;99.90;;;;;;5086277;28;20188;-87
2020/12/16 11:10:27;;;;;;;97.97;41.63;;;3.90;99.90;;;;;;5086599;28;20181;-88
2020/12/16 11:12:55;;;;;;;138.45;65.07;;;3.90;99.90;;;;;;5082755;28;20191;-87
2020/12/16 11:15:21;;;;;;;279.20;141.68;;;3.90;99.90;;;;;;5085872;28;20656;-88
2020/12/16 11:17:52;;;;;;;120.63;62.90;;;3.90;99.90;;;;;;5082831;28;20217;-87
2020/12/16 11:20:24;;;;;;;103.28;54.50;;;4.00;99.90;;;;;;5088175;28;20254;-87
2020/12/16 11:22:55;;;;;;;99.55;43.20;;;4.00;99.90;;;;;;5074061;28;20220;-89
2020/12/16 11:25:23;;;;;;;94.95;40.75;;;3.90;99.90;;;;;;5091856;28;20570;-86
2020/12/16 11:27:49;;;;;;;94.28;39.55;;;3.90;99.90;;;;;;5087372;28;20644;-86
2020/12/16 11:30:15;;;;;;;100.57;45.20;;;3.90;99.90;;;;;;5080990;28;20225;-87
2020/12/16 11:32:43;;;;;;;96.47;43.47;;;4.00;99.90;;;;;;5077002;28;20189;-88
2020/12/16 11:35:11;;;;;;;111.03;48.38;;;4.10;99.90;;;;;;5119029;27;20176;-85
2020/12/16 11:37:39;;;;;;;92.78;39.33;;;4.10;99.90;;;;;;5082074;28;20224;-87
2020/12/16 11:40:05;;;;;;;92.60;40.53;;;4.00;99.90;;;;;;5088080;28;20200;-87
2020/12/16 11:42:31;;;;;;;94.10;39.65;;;3.90;99.90;;;;;;5090624;28;20187;-87
2020/12/16 11:44:57;;;;;;;95.32;40.72;;;3.90;99.90;;;;;;5090892;28;20244;-88
2020/12/16 11:47:23;;;;;;;92.20;39.70;;;3.90;99.90;;;;;;5097279;28;20271;-87
2020/12/16 11:50:03;;;;;;;98.90;40.43;;;4.00;99.90;;;;;;5083996;28;20590;-87
2020/12/16 11:52:29;;;;;;;95.72;37.40;;;4.00;99.90;;;;;;5085472;28;20192;-87
2020/12/16 11:54:57;;;;;;;92.43;41.07;;;4.00;99.90;;;;;;5087713;28;20207;-87
2020/12/16 11:57:28;;;;;;;87.88;39.50;;;4.00;99.90;;;;;;5088572;28;20192;-87
2020/12/16 11:59:54;;;;;;;92.60;38.25;;;4.00;99.90;;;;;;5090016;28;20227;-87
2020/12/16 12:02:26;;;;;;;88.53;42.63;;;4.00;99.90;;;;;;5101155;28;20191;-87
2020/12/16 12:04:54;;;;;;;93.80;38.53;;;4.10;99.90;;;;;;5088884;28;20168;-88
2020/12/16 12:07:20;;;;;;;102.38;40.90;;;4.10;99.90;;;;;;5088188;28;20196;-88
2020/12/16 12:09:48;;;;;;;98.70;39.80;;;4.10;99.90;;;;;;5085841;28;20184;-89
2020/12/16 12:12:14;;;;;;;85.38;38.42;;;4.10;99.90;;;;;;5085154;28;20656;-89
2020/12/16 12:14:39;;;;;;;92.87;37.77;;;4.10;99.90;;;;;;5086934;28;20176;-89
2020/12/16 12:17:05;;;;;;;94.20;40.00;;;4.00;99.90;;;;;;5084292;28;20211;-88
2020/12/16 12:19:35;;;;;;;99.27;46.10;;;4.00;99.90;;;;;;5086415;28;20200;-89
2020/12/16 12:22:01;;;;;;;91.88;44.50;;;4.00;99.90;;;;;;5085264;28;20460;-88
2020/12/16 12:24:32;;;;;;;97.80;40.60;;;4.10;99.90;;;;;;5085999;28;20208;-88
2020/12/16 12:27:03;;;;;;;99.78;39.20;;;4.10;99.90;;;;;;5096676;28;20554;-89
2020/12/16 12:29:38;;;;;;;92.20;38.60;;;4.20;99.90;;;;;;5091384;28;20184;-88
2020/12/16 12:32:09;;;;;;;85.32;35.88;;;4.20;99.90;;;;;;5107214;28;20638;-89
2020/12/16 12:34:35;;;;;;;90.80;38.47;;;4.20;99.90;;;;;;5091372;28;20180;-89
2020/12/16 12:37:04;;;;;;;85.90;37.10;;;4.20;99.90;;;;;;5091520;28;20291;-89
2020/12/16 12:39:35;;;;;;;91.72;40.92;;;4.10;99.90;;;;;;5089378;28;20594;-89
2020/12/16 12:42:01;;;;;;;93.57;40.35;;;4.00;99.90;;;;;;5088478;28;20211;-89
2020/12/16 12:44:33;;;;;;;107.33;38.23;;;4.00;99.90;;;;;;5089359;28;20625;-89
2020/12/16 12:47:00;;;;;;;87.13;40.63;;;4.10;99.90;;;;;;5089569;28;20185;-89
2020/12/16 12:49:26;;;;;;;91.28;39.75;;;4.10;99.90;;;;;;5089673;28;20196;-90
2020/12/16 12:51:54;;;;;;;80.10;37.43;;;4.00;99.90;;;;;;5083788;28;20211;-89
2020/12/16 12:54:23;;;;;;;102.63;42.90;;;4.00;99.90;;;;;;5089587;28;21056;-89
2020/12/16 12:56:51;;;;;;;110.95;49.15;;;4.00;99.90;;;;;;5076344;28;20193;-89
2020/12/16 12:59:20;;;;;;;91.40;41.17;;;4.00;99.90;;;;;;5075044;28;20339;-89
2020/12/16 13:01:54;;;;;;;90.68;43.28;;;4.10;99.90;;;;;;5080356;28;20238;-89